McCullough, Alabama
Current Conditions -  °F | °C
As of 1:53 AM on Friday 19 Dec 2014 (Local Time) from KGZH Reporting Station
Overcast Overcast  
Wind Chill: 51°   Ceiling: 4900
Heat Index: 51°   Visibility: 10mi
Dew Point: 42°   Wind: 3mph
Humidity: 71%   Direction: 350°N
Pressure: 30.14"   Gusts: NA
Location:  31.1324°N, 87.4695°W
Report Text: KGZH 190753Z AUTO 35003KT 10SM FEW037 SCT045 OVC049 11/06 A3014 RMK AO2 SLP206 T01060056
Loading
Personal Weather Stations






























Interactive Weather Map New forecast layout! Learn more

10-Day Weather Forecast

Advertisements
Track Severe Weather on mobile